Time;durP1;ratioP1;P1;durP2;ratioP2;P2;SDS_P1;SDS_P2;PMS_P1;PMS_P2;Temp;Humidity;BMP_temperature;BMP_pressure;BME280_temperature;BME280_humidity;BME280_pressure;Samples;Min_cycle;Max_cycle;Signal;HPM_P1;HPM_P2
2023/03/22 00:01:11;;;;;;;;;;;;;;;19.82;50.79;100702.03;4964013;28;2690;-62
2023/03/22 00:03:37;;;;;;;;;;;;;;;19.82;50.88;100702.78;4966640;28;2811;-62
2023/03/22 00:06:04;;;;;;;;;;;;;;;19.81;50.75;100692.69;4962377;28;2754;-62
2023/03/22 00:08:30;;;;;;;;;;;;;;;19.80;50.67;100699.06;4963113;28;2562;-63
2023/03/22 00:10:57;;;;;;;;;;;;;;;19.79;50.81;100689.72;4964255;28;3089;-62
2023/03/22 00:13:23;;;;;;;;;;;;;;;19.80;50.68;100693.31;4956424;28;3056;-62
2023/03/22 00:15:49;;;;;;;;;;;;;;;19.79;50.68;100683.97;4963390;28;2989;-63
2023/03/22 00:18:16;;;;;;;;;;;;;;;19.79;50.85;100694.69;4966774;28;2683;-63
2023/03/22 00:20:46;;;;;;;;;;;;;;;19.79;50.80;100680.31;4963198;28;2876;-63
2023/03/22 00:23:12;;;;;;;;;;;;;;;19.77;50.79;100681.00;4964486;28;2843;-63
2023/03/22 00:25:38;;;;;;;;;;;;;;;19.78;50.81;100684.59;4964438;28;2742;-63
2023/03/22 00:28:05;;;;;;;;;;;;;;;19.76;50.79;100678.75;4960354;28;2718;-63
2023/03/22 00:30:31;;;;;;;;;;;;;;;19.76;50.79;100679.50;4950130;28;2787;-62
2023/03/22 00:32:57;;;;;;;;;;;;;;;19.77;50.80;100685.97;4965591;28;3253;-62
2023/03/22 00:35:24;;;;;;;;;;;;;;;19.75;50.70;100677.28;4965435;28;2468;-62
2023/03/22 00:37:51;;;;;;;;;;;;;;;19.76;50.75;100678.75;4960598;28;2848;-64
2023/03/22 00:40:17;;;;;;;;;;;;;;;19.75;50.75;100677.28;4961463;28;2806;-64
2023/03/22 00:42:43;;;;;;;;;;;;;;;19.76;50.72;100670.13;4945411;28;2711;-64
2023/03/22 00:45:10;;;;;;;;;;;;;;;19.75;50.72;100668.66;4962101;28;2852;-64
2023/03/22 00:47:36;;;;;;;;;;;;;;;19.74;50.71;100670.03;4961838;28;2771;-64
2023/03/22 00:50:02;;;;;;;;;;;;;;;19.74;50.74;100667.91;4947878;28;2693;-64
2023/03/22 00:52:30;;;;;;;;;;;;;;;19.74;50.71;100670.03;4941282;28;1727;-64
2023/03/22 00:54:57;;;;;;;;;;;;;;;19.73;50.74;100671.44;4948810;28;2846;-64
2023/03/22 00:57:24;;;;;;;;;;;;;;;19.73;50.79;100675.06;4944439;28;2791;-64
2023/03/22 00:59:52;;;;;;;;;;;;;;;19.72;50.67;100664.19;4965733;28;1774;-64
2023/03/22 01:02:19;;;;;;;;;;;;;;;19.71;50.73;100659.84;4964565;28;2865;-64
2023/03/22 01:04:46;;;;;;;;;;;;;;;19.70;50.76;100658.34;4945945;28;1700;-64
2023/03/22 01:07:16;;;;;;;;;;;;;;;19.70;50.69;100652.63;4962780;28;2757;-64
2023/03/22 01:09:43;;;;;;;;;;;;;;;19.70;50.69;100661.22;4949236;28;2782;-64
2023/03/22 01:12:13;;;;;;;;;;;;;;;19.69;50.83;100649.00;4965585;28;2552;-64
2023/03/22 01:14:39;;;;;;;;;;;;;;;19.68;50.58;100644.63;4966523;28;1726;-64
2023/03/22 01:17:06;;;;;;;;;;;;;;;19.67;50.72;100638.13;4962761;28;2834;-64
2023/03/22 01:19:32;;;;;;;;;;;;;;;19.67;50.60;100632.38;4967068;28;2940;-63
2023/03/22 01:21:59;;;;;;;;;;;;;;;19.67;50.69;100641.00;4963025;28;2742;-64
2023/03/22 01:24:25;;;;;;;;;;;;;;;19.67;50.76;100632.38;4966385;28;2678;-64
2023/03/22 01:26:52;;;;;;;;;;;;;;;19.69;50.70;100640.38;4942598;28;2876;-64
2023/03/22 01:29:19;;;;;;;;;;;;;;;19.66;50.65;100630.91;4965554;28;2226;-64
2023/03/22 01:31:45;;;;;;;;;;;;;;;19.66;50.65;100633.78;4945021;28;2465;-64
2023/03/22 01:34:12;;;;;;;;;;;;;;;19.67;50.67;100637.41;4948759;28;1625;-65
2023/03/22 01:36:38;;;;;;;;;;;;;;;19.66;50.63;100636.66;4961330;28;2906;-64
2023/03/22 01:39:05;;;;;;;;;;;;;;;19.65;50.67;100629.44;4963018;28;2624;-64
2023/03/22 01:41:33;;;;;;;;;;;;;;;19.65;50.71;100628.69;4945368;28;2651;-64
2023/03/22 01:44:12;;;;;;;;;;;;;;;19.64;50.73;100627.94;4945520;28;2837;-64
2023/03/22 01:46:39;;;;;;;;;;;;;;;19.64;50.57;100627.94;4963553;28;2697;-64
2023/03/22 01:49:06;;;;;;;;;;;;;;;19.64;50.66;100624.34;4965741;28;2594;-64
2023/03/22 01:51:33;;;;;;;;;;;;;;;19.64;50.72;100619.31;4963551;28;2455;-64
2023/03/22 01:54:28;;;;;;;;;;;;;;;19.63;50.73;100617.84;4962995;28;2654;-64
2023/03/22 01:56:58;;;;;;;;;;;;;;;19.62;50.68;100613.50;4930975;28;2775;-64
2023/03/22 01:59:32;;;;;;;;;;;;;;;19.63;50.75;100614.97;4946186;28;2798;-64
2023/03/22 02:02:13;;;;;;;;;;;;;;;19.64;50.66;100604.97;4939072;28;2787;-64
2023/03/22 02:04:40;;;;;;;;;;;;;;;19.63;50.66;100594.13;4946351;28;2844;-64
2023/03/22 02:23:52;;;;;;;;;;;;;;;19.60;50.71;100599.03;4955458;28;2685;-64
2023/03/22 02:26:32;;;;;;;;;;;;;;;19.60;50.66;100599.03;4953623;28;2927;-64
2023/03/22 02:29:01;;;;;;;;;;;;;;;19.60;50.68;100596.16;4959361;28;1975;-64
2023/03/22 02:31:46;;;;;;;;;;;;;;;19.59;50.70;100591.81;4961082;28;2795;-64
2023/03/22 02:34:27;;;;;;;;;;;;;;;19.59;50.61;100596.81;4944350;28;2465;-62
2023/03/22 02:37:14;;;;;;;;;;;;;;;19.58;50.69;100606.81;4945662;28;2729;-62
2023/03/22 02:39:54;;;;;;;;;;;;;;;19.56;50.73;100604.63;4927797;28;2664;-63
2023/03/22 02:42:26;;;;;;;;;;;;;;;19.55;50.68;100597.38;4963083;28;2859;-63
2023/03/22 02:44:52;;;;;;;;;;;;;;;19.56;50.59;100595.22;4965481;28;1714;-62
2023/03/22 02:47:23;;;;;;;;;;;;;;;19.55;50.71;100591.63;4958659;28;2789;-63
2023/03/22 02:49:53;;;;;;;;;;;;;;;19.56;50.69;100587.38;4947061;28;2882;-63
2023/03/22 02:52:24;;;;;;;;;;;;;;;19.56;50.59;100598.88;4965479;28;2999;-63
2023/03/22 02:55:10;;;;;;;;;;;;;;;19.56;50.61;100592.38;4964319;28;3198;-62
2023/03/22 02:57:38;;;;;;;;;;;;;;;19.57;50.62;100582.38;4963059;28;2801;-62
2023/03/22 03:00:09;;;;;;;;;;;;;;;19.57;50.61;100594.59;4930602;28;2855;-62
2023/03/22 03:02:35;;;;;;;;;;;;;;;19.56;50.55;100601.75;4957348;28;2840;-62
2023/03/22 03:05:02;;;;;;;;;;;;;;;19.56;50.68;100583.75;4954850;28;2870;-62
2023/03/22 03:07:28;;;;;;;;;;;;;;;19.54;50.52;100590.16;4952133;28;2619;-64
2023/03/22 03:09:55;;;;;;;;;;;;;;;19.54;50.64;100590.16;4955024;28;2872;-64
2023/03/22 03:12:24;;;;;;;;;;;;;;;19.54;50.63;100586.53;4947889;28;2785;-63
2023/03/22 03:14:53;;;;;;;;;;;;;;;19.54;50.61;100590.16;4943818;28;2632;-64
2023/03/22 03:17:22;;;;;;;;;;;;;;;19.53;50.65;100590.78;4948448;28;2828;-64
2023/03/22 03:19:56;;;;;;;;;;;;;;;19.52;50.66;100590.06;4945599;28;2908;-64
2023/03/22 03:22:34;;;;;;;;;;;;;;;19.51;50.63;100591.44;4965255;28;2865;-64
2023/03/22 03:25:00;;;;;;;;;;;;;;;19.52;50.58;100589.31;4947258;28;2453;-64
2023/03/22 03:27:29;;;;;;;;;;;;;;;19.51;50.63;100584.97;4966991;28;2516;-64
2023/03/22 03:30:01;;;;;;;;;;;;;;;19.51;50.57;100597.19;4936085;28;2886;-64
2023/03/22 03:32:35;;;;;;;;;;;;;;;19.52;50.55;100578.56;4947984;28;2770;-64
2023/03/22 03:35:24;;;;;;;;;;;;;;;19.52;50.50;100583.59;4949503;28;2600;-64
2023/03/22 03:37:56;;;;;;;;;;;;;;;19.52;50.60;100586.47;4945167;28;2643;-64
2023/03/22 03:40:25;;;;;;;;;;;;;;;19.54;50.48;100575.03;4946291;28;2635;-64
2023/03/22 03:42:52;;;;;;;;;;;;;;;19.57;50.38;100585.97;4940495;28;3318;-64
2023/03/22 03:45:18;;;;;;;;;;;;;;;19.59;50.24;100574.59;4941467;28;2987;-64
2023/03/22 03:47:45;;;;;;;;;;;;;;;19.62;50.15;100578.28;4960398;28;3033;-64
2023/03/22 03:50:12;;;;;;;;;;;;;;;19.64;50.05;100576.25;4962278;28;2814;-64
2023/03/22 03:52:38;;;;;;;;;;;;;;;19.65;50.03;100586.34;4933767;28;2836;-64
2023/03/22 03:55:04;;;;;;;;;;;;;;;19.66;50.04;100584.94;4942034;28;2849;-64
2023/03/22 03:57:33;;;;;;;;;;;;;;;19.66;50.25;100579.22;4947859;28;2533;-64
2023/03/22 03:59:59;;;;;;;;;;;;;;;19.66;50.44;100587.81;4964490;28;1734;-64
2023/03/22 04:02:39;;;;;;;;;;;;;;;19.66;50.42;100584.94;4966797;28;2519;-64
2023/03/22 04:05:07;;;;;;;;;;;;;;;19.66;50.51;100582.09;4944553;28;2860;-64
2023/03/22 04:07:33;;;;;;;;;;;;;;;19.68;50.33;100587.19;4965259;28;2703;-64
2023/03/22 04:10:00;;;;;;;;;;;;;;;19.67;49.89;100574.94;4952414;28;2600;-63
2023/03/22 04:12:30;;;;;;;;;;;;;;;19.70;50.26;100583.66;4961329;28;3025;-63
2023/03/22 04:15:11;;;;;;;;;;;;;;;19.71;50.12;100579.44;4963183;28;2869;-63
2023/03/22 04:17:38;;;;;;;;;;;;;;;19.72;50.22;100581.63;4949201;28;2549;-63
2023/03/22 04:20:06;;;;;;;;;;;;;;;19.74;50.24;100583.84;4940125;28;2826;-63
2023/03/22 04:22:37;;;;;;;;;;;;;;;19.75;50.35;100585.34;4946784;28;2896;-63
2023/03/22 04:25:04;;;;;;;;;;;;;;;19.75;50.33;100573.88;4943758;28;2974;-63
2023/03/22 04:27:30;;;;;;;;;;;;;;;19.75;50.42;100583.22;4948231;28;2765;-63
2023/03/22 04:30:00;;;;;;;;;;;;;;;19.75;50.53;100582.47;4960765;28;2598;-63
2023/03/22 04:33:05;;;;;;;;;;;;;;;19.75;50.33;100579.59;4940482;28;2785;-63
2023/03/22 04:35:55;;;;;;;;;;;;;;;19.74;50.57;100578.13;4928810;28;1828;-63
2023/03/22 04:38:28;;;;;;;;;;;;;;;19.74;50.37;100572.38;4947913;28;2790;-63
2023/03/22 04:40:54;;;;;;;;;;;;;;;19.75;50.53;100573.88;4946337;28;2709;-63
2023/03/22 04:43:33;;;;;;;;;;;;;;;19.75;50.37;100571.72;4943746;28;2474;-63
2023/03/22 04:46:02;;;;;;;;;;;;;;;19.76;50.50;100569.59;4945438;28;2952;-63
2023/03/22 04:48:38;;;;;;;;;;;;;;;19.77;50.38;100565.31;4959281;28;2950;-63
2023/03/22 04:51:05;;;;;;;;;;;;;;;19.78;50.43;100561.06;4961595;28;2904;-63
2023/03/22 04:53:37;;;;;;;;;;;;;;;19.79;50.28;100551.03;4946251;28;2923;-63
2023/03/22 04:56:05;;;;;;;;;;;;;;;19.80;50.17;100552.53;4962594;28;2807;-63
2023/03/22 04:58:33;;;;;;;;;;;;;;;19.79;50.49;100548.94;4944710;28;2640;-63
2023/03/22 05:01:00;;;;;;;;;;;;;;;19.79;50.49;100548.16;4960996;28;2620;-63
2023/03/22 05:03:26;;;;;;;;;;;;;;;19.80;50.44;100546.78;4961545;28;1746;-63
2023/03/22 05:05:56;;;;;;;;;;;;;;;19.80;50.53;100541.03;4961963;28;2842;-63
2023/03/22 05:08:27;;;;;;;;;;;;;;;19.79;50.53;100540.31;4944288;28;2944;-63
2023/03/22 05:10:54;;;;;;;;;;;;;;;19.79;50.46;100545.28;4959971;28;3132;-64
2023/03/22 05:13:21;;;;;;;;;;;;;;;19.79;50.61;100545.28;4960346;28;2770;-63
2023/03/22 05:15:48;;;;;;;;;;;;;;;19.79;50.34;100551.03;4965104;28;2717;-63
2023/03/22 05:18:19;;;;;;;;;;;;;;;19.80;50.36;100546.78;4939418;28;2874;-63
2023/03/22 05:20:46;;;;;;;;;;;;;;;19.81;50.21;100548.25;4941979;28;2634;-63
2023/03/22 05:23:18;;;;;;;;;;;;;;;19.81;50.27;100548.25;4953217;28;2561;-63
2023/03/22 05:25:47;;;;;;;;;;;;;;;19.83;50.33;100545.47;4940035;28;2869;-63
2023/03/22 05:28:15;;;;;;;;;;;;;;;19.84;50.29;100546.97;4946976;28;2667;-63
2023/03/22 05:30:52;;;;;;;;;;;;;;;19.83;50.36;100540.47;4940192;28;3349;-63
2023/03/22 05:33:30;;;;;;;;;;;;;;;19.84;50.42;100549.84;4957217;28;2734;-63
2023/03/22 05:35:57;;;;;;;;;;;;;;;19.83;50.44;100546.22;4940990;28;2665;-63
2023/03/22 05:38:26;;;;;;;;;;;;;;;19.84;50.29;100546.97;4943642;28;2933;-63
2023/03/22 05:40:55;;;;;;;;;;;;;;;19.84;50.36;100549.84;4940586;28;2766;-63
2023/03/22 05:43:22;;;;;;;;;;;;;;;19.82;50.59;100544.75;4940377;28;2992;-63
2023/03/22 05:45:49;;;;;;;;;;;;;;;19.84;50.51;100541.22;4942294;28;2739;-63
2023/03/22 05:48:31;;;;;;;;;;;;;;;19.82;50.62;100539.00;4947822;28;2771;-64
2023/03/22 05:50:58;;;;;;;;;;;;;;;19.84;50.46;100544.09;4947347;28;1786;-64
2023/03/22 05:53:27;;;;;;;;;;;;;;;19.84;50.30;100536.22;4959904;28;3041;-63
2023/03/22 05:55:59;;;;;;;;;;;;;;;19.85;50.38;100536.94;4961888;28;3004;-64
2023/03/22 05:58:29;;;;;;;;;;;;;;;19.86;49.95;100538.44;4938222;28;2998;-63
2023/03/22 06:00:59;;;;;;;;;;;;;;;19.87;50.36;100534.16;4944876;28;2734;-62
2023/03/22 06:03:47;;;;;;;;;;;;;;;19.90;50.38;100532.13;4962582;28;2635;-62
2023/03/22 06:06:22;;;;;;;;;;;;;;;19.90;50.26;100526.38;4933748;28;2841;-63
2023/03/22 06:08:59;;;;;;;;;;;;;;;19.91;50.21;100531.47;4941286;28;3191;-63
2023/03/22 06:11:41;;;;;;;;;;;;;;;19.92;50.13;100537.94;4944634;28;2733;-62
2023/03/22 06:14:08;;;;;;;;;;;;;;;19.91;50.30;100527.88;4946984;28;2834;-64
2023/03/22 06:16:53;;;;;;;;;;;;;;;19.96;50.46;100538.13;4939712;28;2695;-65
2023/03/22 06:19:20;;;;;;;;;;;;;;;20.00;50.40;100536.16;4945329;28;2731;-64
2023/03/22 06:21:46;;;;;;;;;;;;;;;19.99;50.48;100536.81;4943945;28;2971;-64
2023/03/22 06:24:14;;;;;;;;;;;;;;;19.96;50.54;100536.00;4945461;28;2961;-65
2023/03/22 06:26:41;;;;;;;;;;;;;;;19.99;50.51;100533.94;4944835;28;2730;-64
2023/03/22 06:29:07;;;;;;;;;;;;;;;19.99;50.65;100540.41;4961029;28;3066;-64
2023/03/22 06:31:34;;;;;;;;;;;;;;;19.99;50.58;100540.41;4946636;28;2887;-65
2023/03/22 06:34:03;;;;;;;;;;;;;;;20.01;50.68;100543.38;4964615;28;1706;-65
2023/03/22 06:36:35;;;;;;;;;;;;;;;20.02;50.71;100538.38;4942830;28;2986;-65
2023/03/22 06:39:09;;;;;;;;;;;;;;;20.00;50.80;100541.91;4939639;28;2826;-65
2023/03/22 06:41:39;;;;;;;;;;;;;;;19.71;50.69;100539.22;4956508;28;2926;-59
2023/03/22 06:44:06;;;;;;;;;;;;;;;18.66;49.69;100545.13;4921619;28;3067;-57
2023/03/22 06:46:42;;;;;;;;;;;;;;;18.78;50.81;100549.34;4948309;28;2917;-59
2023/03/22 06:49:21;;;;;;;;;;;;;;;14.76;57.58;100554.03;4964014;28;2720;-67
2023/03/22 06:51:51;;;;;;;;;;;;;;;16.85;54.63;100544.38;4953039;28;2662;-65
2023/03/22 06:54:18;;;;;;;;;;;;;;;18.16;52.17;100550.56;4955980;28;2940;-65
2023/03/22 06:56:44;;;;;;;;;;;;;;;18.70;53.21;100554.66;4939367;28;4049;-64
2023/03/22 07:02:02;;;;;;;;;;;;;;;18.22;50.36;100553.75;4963532;28;2999;-61
2023/03/22 07:04:29;;;;;;;;;;;;;;;17.67;51.12;100548.03;4945380;28;3056;-61
2023/03/22 07:06:56;;;;;;;;;;;;;;;17.25;53.11;100550.88;4935476;28;2983;-60
2023/03/22 07:09:50;;;;;;;;;;;;;;;19.09;51.33;100556.50;4945789;28;2880;-61
2023/03/22 07:12:17;;;;;;;;;;;;;;;19.76;49.52;100552.34;4944401;28;2943;-60
2023/03/22 07:14:44;;;;;;;;;;;;;;;19.97;49.12;100554.69;4961576;28;3065;-63
2023/03/22 07:17:25;;;;;;;;;;;;;;;20.17;48.60;100551.22;4943247;28;2932;-62
2023/03/22 07:19:52;;;;;;;;;;;;;;;20.19;48.17;100548.44;4946850;28;2896;-62
2023/03/22 07:22:21;;;;;;;;;;;;;;;20.28;47.91;100547.38;4948201;28;2696;-62
2023/03/22 07:24:49;;;;;;;;;;;;;;;20.10;47.93;100541.59;4951064;28;2750;-63
2023/03/22 07:27:26;;;;;;;;;;;;;;;19.99;48.09;100546.16;4945508;28;4591;-62
2023/03/22 07:29:53;;;;;;;;;;;;;;;19.87;48.33;100540.63;4961050;28;4050;-63
2023/03/22 07:32:20;;;;;;;;;;;;;;;20.28;48.14;100541.63;4959392;28;3749;-63
2023/03/22 07:34:57;;;;;;;;;;;;;;;20.19;47.85;100536.94;4947686;28;4172;-63
2023/03/22 07:37:23;;;;;;;;;;;;;;;20.19;47.50;100531.94;4946393;28;2810;-62
2023/03/22 07:39:49;;;;;;;;;;;;;;;20.31;47.89;100531.69;4956113;28;3217;-66
2023/03/22 07:42:16;;;;;;;;;;;;;;;20.38;47.81;100521.91;4941832;28;4157;-65
2023/03/22 07:45:03;;;;;;;;;;;;;;;20.45;47.43;100526.50;4963937;28;2962;-65
2023/03/22 07:47:49;;;;;;;;;;;;;;;20.02;47.83;100524.75;4960656;28;2810;-63
2023/03/22 07:50:16;;;;;;;;;;;;;;;19.85;48.35;100526.19;4954707;28;2867;-64
2023/03/22 07:52:44;;;;;;;;;;;;;;;19.80;48.63;100529.53;4945558;28;2920;-68
2023/03/22 07:55:12;;;;;;;;;;;;;;;19.76;48.85;100526.50;4944542;28;3096;-66
2023/03/22 07:57:38;;;;;;;;;;;;;;;19.73;48.71;100525.66;4963057;28;2828;-66
2023/03/22 08:00:07;;;;;;;;;;;;;;;19.69;48.82;100524.75;4944824;28;2765;-66
2023/03/22 08:02:47;;;;;;;;;;;;;;;19.64;48.91;100530.28;4954669;28;2982;-66
2023/03/22 08:05:29;;;;;;;;;;;;;;;19.63;48.87;100525.94;4939272;28;3105;-66
2023/03/22 08:08:00;;;;;;;;;;;;;;;19.62;49.01;100524.44;4941395;28;3553;-67
2023/03/22 08:10:26;;;;;;;;;;;;;;;19.62;49.04;100524.44;4957836;28;2967;-66
2023/03/22 08:12:53;;;;;;;;;;;;;;;19.62;49.11;100529.47;4962711;28;2796;-66
2023/03/22 08:15:22;;;;;;;;;;;;;;;19.60;48.89;100517.88;4943719;28;2946;-66
2023/03/22 08:17:49;;;;;;;;;;;;;;;19.60;49.09;100524.34;4940186;28;2986;-66
2023/03/22 08:20:28;;;;;;;;;;;;;;;19.59;49.18;100510.66;4944150;28;2981;-63
2023/03/22 08:22:58;;;;;;;;;;;;;;;19.72;49.04;100520.56;4936400;28;3213;-64
2023/03/22 08:25:25;;;;;;;;;;;;;;;20.12;48.64;100512.22;4957690;28;2962;-64
2023/03/22 08:27:54;;;;;;;;;;;;;;;20.38;48.11;100504.66;4956789;28;2936;-64
2023/03/22 08:30:25;;;;;;;;;;;;;;;20.45;47.36;100506.38;4942671;28;3007;-67
2023/03/22 08:32:52;;;;;;;;;;;;;;;20.79;47.94;100494.78;4955708;28;4447;-66
2023/03/22 08:35:19;;;;;;;;;;;;;;;21.04;47.63;100501.50;4935968;28;2959;-65
2023/03/22 08:37:46;;;;;;;;;;;;;;;21.09;47.43;100491.59;4957781;28;2905;-69
2023/03/22 08:40:14;;;;;;;;;;;;;;;21.12;47.09;100496.06;4947660;28;2769;-69
2023/03/22 08:42:53;;;;;;;;;;;;;;;21.17;47.24;100491.91;4938863;28;2873;-71
2023/03/22 08:45:19;;;;;;;;;;;;;;;21.15;47.31;100488.97;4962298;28;2852;-68
2023/03/22 08:47:51;;;;;;;;;;;;;;;21.25;47.00;100497.97;4933729;28;2955;-66
2023/03/22 08:50:22;;;;;;;;;;;;;;;21.34;47.08;100481.72;4938378;28;3105;-67
2023/03/22 08:52:56;;;;;;;;;;;;;;;21.43;46.70;100477.03;4959653;28;2791;-65
2023/03/22 08:55:26;;;;;;;;;;;;;;;21.47;46.64;100480.06;4945486;28;2589;-66
2023/03/22 08:58:18;;;;;;;;;;;;;;;21.51;46.68;100474.44;4958951;28;4258;-66
2023/03/22 09:00:54;;;;;;;;;;;;;;;21.50;46.93;100472.94;4955382;28;2706;-66
2023/03/22 09:03:24;;;;;;;;;;;;;;;21.26;47.04;100470.66;4960806;28;2536;-66
2023/03/22 09:05:51;;;;;;;;;;;;;;;21.13;47.59;100471.59;4962623;28;2820;-67
2023/03/22 09:08:17;;;;;;;;;;;;;;;21.13;47.57;100462.97;4965285;28;2279;-66
2023/03/22 09:10:50;;;;;;;;;;;;;;;21.21;47.75;100457.50;4941802;28;2980;-66
2023/03/22 09:13:19;;;;;;;;;;;;;;;21.29;47.75;100448.41;4958633;28;2935;-71
2023/03/22 09:15:52;;;;;;;;;;;;;;;21.33;47.62;100445.69;4961532;28;2899;-71
2023/03/22 09:18:24;;;;;;;;;;;;;;;21.40;47.84;100449.53;4951986;28;3128;-64
2023/03/22 09:20:52;;;;;;;;;;;;;;;21.43;47.59;100439.56;4961410;28;3127;-66
2023/03/22 09:23:23;;;;;;;;;;;;;;;21.48;47.71;100449.84;4964530;28;1710;-66
2023/03/22 09:25:50;;;;;;;;;;;;;;;21.43;48.09;100451.81;4944085;28;3042;-66
2023/03/22 09:28:20;;;;;;;;;;;;;;;21.48;48.01;100456.31;4959591;28;3062;-64
2023/03/22 09:30:47;;;;;;;;;;;;;;;21.27;47.85;100449.09;4944360;28;3031;-73
2023/03/22 09:33:15;;;;;;;;;;;;;;;21.15;48.30;100448.66;4961377;28;4745;-67
2023/03/22 09:35:43;;;;;;;;;;;;;;;21.15;48.61;100442.16;4948508;28;1679;-72
2023/03/22 09:38:12;;;;;;;;;;;;;;;21.16;48.61;100450.13;4961662;28;3176;-67
2023/03/22 09:40:45;;;;;;;;;;;;;;;20.96;48.36;100455.13;4963545;28;2744;-78
2023/03/22 09:43:11;;;;;;;;;;;;;;;20.81;47.66;100451.72;4965690;28;3133;-71
2023/03/22 09:45:40;;;;;;;;;;;;;;;21.05;47.39;100440.38;4959229;28;2707;-65
2023/03/22 09:48:26;;;;;;;;;;;;;;;20.97;47.29;100440.06;4954484;28;3212;-77
2023/03/22 09:50:53;;;;;;;;;;;;;;;20.99;46.79;100427.91;4962868;28;2997;-71
2023/03/22 09:53:19;;;;;;;;;;;;;;;21.08;47.00;100432.56;4962847;28;2666;-69
2023/03/22 09:55:49;;;;;;;;;;;;;;;21.19;47.09;100433.66;4962654;28;2747;-67
2023/03/22 09:58:18;;;;;;;;;;;;;;;21.22;47.20;100427.31;4961547;28;2924;-69
2023/03/22 10:00:47;;;;;;;;;;;;;;;21.27;47.25;100431.06;4946945;28;2686;-68
2023/03/22 10:03:31;;;;;;;;;;;;;;;21.48;47.67;100426.78;4945555;28;2990;-69
2023/03/22 10:06:01;;;;;;;;;;;;;;;21.51;47.74;100425.47;4961879;28;4326;-67
2023/03/22 10:08:47;;;;;;;;;;;;;;;21.51;47.56;100425.47;4965232;28;3417;-67
2023/03/22 10:11:16;;;;;;;;;;;;;;;21.50;47.62;100424.72;4963704;28;3047;-67
2023/03/22 10:13:52;;;;;;;;;;;;;;;21.53;47.55;100422.63;4946048;28;2922;-67
2023/03/22 10:16:23;;;;;;;;;;;;;;;21.48;47.40;100418.16;4945340;28;2926;-68
2023/03/22 10:18:50;;;;;;;;;;;;;;;21.49;47.81;100413.88;4946660;28;2408;-66
2023/03/22 10:21:16;;;;;;;;;;;;;;;21.39;47.81;100404.84;4949076;28;1870;-65
2023/03/22 10:23:49;;;;;;;;;;;;;;;21.27;48.38;100403.00;4962316;28;2978;-65
2023/03/22 10:26:23;;;;;;;;;;;;;;;21.23;48.36;100397.09;4956137;28;3203;-67
2023/03/22 10:28:55;;;;;;;;;;;;;;;21.28;48.45;100381.47;4958874;28;2923;-65
2023/03/22 10:31:21;;;;;;;;;;;;;;;21.29;48.67;100380.03;4962942;28;2126;-66
2023/03/22 10:33:50;;;;;;;;;;;;;;;21.30;48.75;100378.66;4951542;28;2777;-66
2023/03/22 10:36:18;;;;;;;;;;;;;;;21.29;48.81;100368.53;4956401;28;2929;-66
2023/03/22 10:38:45;;;;;;;;;;;;;;;21.31;48.77;100371.47;4954800;28;3012;-66
2023/03/22 10:41:12;;;;;;;;;;;;;;;21.41;49.00;100376.13;4960561;28;2975;-64
2023/03/22 10:43:39;;;;;;;;;;;;;;;21.53;48.79;100371.53;4945810;28;2791;-63
2023/03/22 10:46:06;;;;;;;;;;;;;;;21.44;48.79;100369.78;4945515;28;2813;-67
2023/03/22 10:48:34;;;;;;;;;;;;;;;21.40;48.92;100363.13;4961261;28;3029;-66
2023/03/22 10:51:00;;;;;;;;;;;;;;;21.40;48.98;100363.13;4946230;28;2906;-66
2023/03/22 10:53:39;;;;;;;;;;;;;;;21.37;48.91;100359.41;4960206;28;3161;-65
2023/03/22 10:56:10;;;;;;;;;;;;;;;21.17;48.06;100359.47;4953881;28;2922;-68
2023/03/22 10:58:36;;;;;;;;;;;;;;;20.87;48.11;100356.97;4956521;28;2950;-72
2023/03/22 11:01:15;;;;;;;;;;;;;;;20.85;47.02;100354.03;4964142;28;2774;-71
2023/03/22 11:03:43;;;;;;;;;;;;;;;20.84;46.55;100357.56;4956862;28;3310;-71
2023/03/22 11:06:12;;;;;;;;;;;;;;;20.79;46.01;100362.44;4960308;28;3408;-69
2023/03/22 11:08:39;;;;;;;;;;;;;;;20.76;46.21;100352.25;4951033;28;4305;-73
2023/03/22 11:11:06;;;;;;;;;;;;;;;20.68;45.46;100346.94;4955926;28;2961;-72
2023/03/22 11:13:32;;;;;;;;;;;;;;;20.69;45.05;100356.31;4939340;28;3038;-72
2023/03/22 11:16:02;;;;;;;;;;;;;;;20.73;44.88;100358.59;4939146;28;3032;-68
2023/03/22 11:18:30;;;;;;;;;;;;;;;20.64;44.70;100360.44;4953179;28;4331;-71
2023/03/22 11:20:57;;;;;;;;;;;;;;;20.79;44.62;100361.69;4945517;28;3401;-66
2023/03/22 11:23:24;;;;;;;;;;;;;;;20.87;44.78;100356.97;4962371;28;2878;-71
2023/03/22 11:25:50;;;;;;;;;;;;;;;21.00;44.74;100360.28;4962446;28;2972;-73
2023/03/22 11:28:18;;;;;;;;;;;;;;;21.04;45.22;100363.31;4966062;28;2950;-70
2023/03/22 11:30:56;;;;;;;;;;;;;;;20.97;45.09;100353.00;4966003;28;2030;-70
2023/03/22 11:33:24;;;;;;;;;;;;;;;21.03;45.23;100339.56;4968505;28;1581;-65
2023/03/22 11:35:55;;;;;;;;;;;;;;;21.06;45.11;100343.97;4968116;28;1736;-66
2023/03/22 11:38:24;;;;;;;;;;;;;;;20.97;45.48;100335.72;4966467;28;2399;-64
2023/03/22 11:40:52;;;;;;;;;;;;;;;20.96;45.72;100334.22;4967517;28;1611;-65
2023/03/22 11:43:19;;;;;;;;;;;;;;;21.01;45.85;100333.00;4955202;28;1708;-65
2023/03/22 11:45:47;;;;;;;;;;;;;;;20.99;46.10;100327.16;4965419;28;3781;-68
2023/03/22 11:48:23;;;;;;;;;;;;;;;21.01;46.25;100330.13;4967899;28;1675;-67
2023/03/22 11:50:51;;;;;;;;;;;;;;;21.07;46.28;100330.31;4965903;28;3614;-67
2023/03/22 11:53:21;;;;;;;;;;;;;;;21.23;46.24;100322.22;4946241;28;2770;-73
2023/03/22 11:55:48;;;;;;;;;;;;;;;21.30;46.17;100314.53;4945427;28;4280;-71
2023/03/22 11:58:23;;;;;;;;;;;;;;;21.53;46.21;100318.94;4961631;28;4371;-66
2023/03/22 12:00:51;;;;;;;;;;;;;;;21.61;46.38;100313.44;4963453;28;3681;-73
2023/03/22 12:03:19;;;;;;;;;;;;;;;21.28;46.40;100312.34;4967372;28;1699;-67
2023/03/22 12:05:46;;;;;;;;;;;;;;;21.12;46.85;100308.91;4965877;28;2710;-62
2023/03/22 12:08:41;;;;;;;;;;;;;;;21.14;47.41;100303.19;4968660;28;1690;-68
2023/03/22 12:11:10;;;;;;;;;;;;;;;21.20;47.54;100303.41;4965747;28;1876;-67
2023/03/22 12:13:50;;;;;;;;;;;;;;;21.17;47.44;100296.13;4966504;28;1794;-67
2023/03/22 12:16:19;;;;;;;;;;;;;;;21.21;47.31;100299.16;4950363;28;2347;-69
2023/03/22 12:19:04;;;;;;;;;;;;;;;21.20;47.58;100294.06;4964505;28;1725;-66
2023/03/22 12:21:30;;;;;;;;;;;;;;;21.18;47.45;100283.19;4965520;28;1674;-65
2023/03/22 12:23:57;;;;;;;;;;;;;;;20.95;46.75;100280.97;4965670;28;1743;-65
2023/03/22 12:26:25;;;;;;;;;;;;;;;21.04;46.54;100276.97;4944961;28;1865;-66
2023/03/22 12:28:55;;;;;;;;;;;;;;;21.26;45.99;100263.31;4949404;28;1964;-66
2023/03/22 12:31:26;;;;;;;;;;;;;;;21.36;45.97;100273.69;4966124;28;1674;-68
2023/03/22 12:33:53;;;;;;;;;;;;;;;21.12;46.18;100271.50;4945776;28;3253;-77
2023/03/22 12:36:20;;;;;;;;;;;;;;;21.03;46.62;100269.75;4948468;28;3230;-66
2023/03/22 12:38:48;;;;;;;;;;;;;;;21.36;47.42;100262.19;4962046;28;3131;-67
2023/03/22 12:41:15;;;;;;;;;;;;;;;21.65;46.36;100266.75;4965312;28;3112;-70
2023/03/22 12:43:44;;;;;;;;;;;;;;;21.76;46.04;100257.00;4962218;28;4597;-68
2023/03/22 12:46:16;;;;;;;;;;;;;;;21.49;46.37;100270.56;4960703;28;3230;-75
2023/03/22 12:48:44;;;;;;;;;;;;;;;21.52;46.76;100265.63;4954437;28;2977;-67
2023/03/22 12:51:12;;;;;;;;;;;;;;;21.48;46.87;100262.59;4946009;28;2961;-67
2023/03/22 12:53:43;;;;;;;;;;;;;;;21.47;46.81;100258.25;4967458;28;1647;-69
2023/03/22 12:56:31;;;;;;;;;;;;;;;21.49;47.36;100259.06;4962236;28;3687;-71
2023/03/22 12:59:00;;;;;;;;;;;;;;;21.46;47.19;100251.00;4940335;28;4562;-71
2023/03/22 13:01:32;;;;;;;;;;;;;;;21.47;47.54;100255.38;4961013;28;2538;-71
2023/03/22 13:03:58;;;;;;;;;;;;;;;21.45;47.19;100255.31;4959783;28;2810;-70
2023/03/22 13:06:44;;;;;;;;;;;;;;;21.47;47.31;100241.69;4959672;28;4678;-65
2023/03/22 13:09:17;;;;;;;;;;;;;;;21.46;47.17;100245.25;4965434;28;2955;-65
2023/03/22 13:11:47;;;;;;;;;;;;;;;21.49;47.10;100244.66;4962434;28;2864;-64
2023/03/22 13:14:33;;;;;;;;;;;;;;;21.51;47.03;100252.63;4956931;28;2822;-62
2023/03/22 13:16:59;;;;;;;;;;;;;;;21.52;47.20;100243.31;4965718;28;3216;-63
2023/03/22 13:19:31;;;;;;;;;;;;;;;21.48;47.07;100242.44;4963455;28;3022;-61
2023/03/22 13:22:14;;;;;;;;;;;;;;;21.50;47.25;100242.50;4962652;28;2974;-62
2023/03/22 13:24:57;;;;;;;;;;;;;;;21.43;47.30;100243.72;4965348;28;2898;-63